createdAt,value
2023-02-17T00:01:27.456Z,5.53
2023-02-17T00:03:55.483Z,5.63
2023-02-17T00:06:29.405Z,5.64
2023-02-17T00:08:58.000Z,5.62
2023-02-17T00:11:25.474Z,5.66
2023-02-17T00:13:56.143Z,5.71
2023-02-17T00:16:25.394Z,5.72
2023-02-17T00:18:54.867Z,5.70
2023-02-17T00:21:23.961Z,5.60
2023-02-17T00:23:53.330Z,5.63
2023-02-17T00:26:21.518Z,5.66
2023-02-17T00:28:49.596Z,5.61
2023-02-17T00:31:20.018Z,5.53
2023-02-17T00:33:47.713Z,5.60
2023-02-17T00:36:17.685Z,5.62
2023-02-17T00:38:45.232Z,5.63
2023-02-17T00:41:14.042Z,5.70
2023-02-17T00:43:41.494Z,5.74
2023-02-17T00:46:09.328Z,5.75
2023-02-17T00:48:36.944Z,5.81
2023-02-17T00:51:04.782Z,5.82
2023-02-17T00:53:32.335Z,5.88
2023-02-17T00:55:59.967Z,5.87
2023-02-17T00:58:28.983Z,5.86
2023-02-17T01:00:56.957Z,5.87
2023-02-17T01:03:25.080Z,5.88
2023-02-17T01:05:52.800Z,5.73
2023-02-17T01:08:20.257Z,5.75
2023-02-17T01:10:48.691Z,5.66
2023-02-17T01:13:17.500Z,5.60
2023-02-17T01:15:48.683Z,5.65
2023-02-17T01:18:16.460Z,5.70
2023-02-17T01:20:44.475Z,5.75
2023-02-17T01:23:12.876Z,5.76
2023-02-17T01:25:41.332Z,5.84
2023-02-17T01:28:09.663Z,5.82
2023-02-17T01:30:37.118Z,5.88
2023-02-17T01:33:06.023Z,5.84
2023-02-17T01:35:34.374Z,5.94
2023-02-17T01:38:01.953Z,5.95
2023-02-17T01:40:30.177Z,5.98
2023-02-17T01:42:57.703Z,6.01
2023-02-17T01:45:35.245Z,6.05
2023-02-17T01:48:08.988Z,6.12
2023-02-17T01:50:40.353Z,6.10
2023-02-17T01:53:08.982Z,6.15
2023-02-17T01:55:38.672Z,6.18
2023-02-17T01:58:08.754Z,6.18
2023-02-17T02:00:36.993Z,6.22
2023-02-17T02:03:05.533Z,6.15
2023-02-17T02:05:36.540Z,6.15
2023-02-17T02:08:05.628Z,6.20
2023-02-17T02:10:33.139Z,6.22
2023-02-17T02:13:00.898Z,6.30
2023-02-17T02:15:32.883Z,6.29
2023-02-17T02:18:22.946Z,6.34
2023-02-17T02:21:19.627Z,6.24
2023-02-17T02:23:54.269Z,6.05
2023-02-17T02:26:59.138Z,6.13
2023-02-17T02:29:47.739Z,6.13
2023-02-17T02:32:40.886Z,6.20
2023-02-17T02:35:10.874Z,6.24
2023-02-17T02:37:42.024Z,6.26
2023-02-17T02:40:11.704Z,6.24
2023-02-17T02:42:40.188Z,6.33
2023-02-17T02:45:09.189Z,6.34
2023-02-17T02:47:44.422Z,6.39
2023-02-17T02:50:13.457Z,6.40
2023-02-17T02:52:49.283Z,6.43
2023-02-17T02:55:20.259Z,6.45
2023-02-17T02:57:53.788Z,6.42
2023-02-17T03:00:25.178Z,6.43
2023-02-17T03:02:57.206Z,6.43
2023-02-17T03:05:29.768Z,6.46
2023-02-17T03:08:00.307Z,6.53
2023-02-17T03:10:27.822Z,6.58
2023-02-17T03:12:55.326Z,6.72
2023-02-17T03:15:27.018Z,6.80
2023-02-17T03:17:57.455Z,6.82
2023-02-17T03:20:25.031Z,6.81
2023-02-17T03:22:52.608Z,6.90
2023-02-17T03:25:20.161Z,6.91
2023-02-17T03:27:47.677Z,7.09
2023-02-17T03:30:15.293Z,7.23
2023-02-17T03:32:42.902Z,7.25
2023-02-17T03:35:12.055Z,7.23
2023-02-17T03:37:39.584Z,7.17
2023-02-17T03:40:09.023Z,7.18
2023-02-17T03:42:37.009Z,7.18
2023-02-17T03:45:04.726Z,7.24
2023-02-17T03:47:32.606Z,7.24
2023-02-17T03:50:00.083Z,7.22
2023-02-17T03:52:28.946Z,7.19
2023-02-17T03:54:56.400Z,7.19
2023-02-17T03:57:23.907Z,7.24
2023-02-17T03:59:51.578Z,7.34
2023-02-17T04:02:19.052Z,7.24
2023-02-17T04:04:46.536Z,7.23
2023-02-17T04:07:14.292Z,7.51
2023-02-17T04:09:43.223Z,7.61
2023-02-17T04:12:10.710Z,7.83
2023-02-17T04:14:38.161Z,7.85
2023-02-17T04:17:05.630Z,8.06
2023-02-17T04:19:33.082Z,8.07
2023-02-17T04:22:00.517Z,8.14
2023-02-17T04:24:27.995Z,8.18
2023-02-17T04:26:56.821Z,8.32
2023-02-17T04:29:24.294Z,8.35
2023-02-17T04:31:51.886Z,8.35
2023-02-17T04:34:19.464Z,8.41
2023-02-17T04:36:46.928Z,8.48
2023-02-17T04:39:14.420Z,8.47
2023-02-17T04:41:41.883Z,8.50
2023-02-17T04:44:11.560Z,8.64
2023-02-17T04:46:39.179Z,8.57
2023-02-17T04:49:06.787Z,8.65
2023-02-17T04:51:34.371Z,8.60
2023-02-17T04:54:02.546Z,8.56
2023-02-17T04:56:30.207Z,8.59
2023-02-17T04:58:57.962Z,8.61
2023-02-17T05:01:27.023Z,8.54
2023-02-17T05:03:55.125Z,8.56
2023-02-17T05:06:23.929Z,8.59
2023-02-17T05:08:53.603Z,8.66
2023-02-17T05:11:21.500Z,8.61
2023-02-17T05:13:49.913Z,8.63
2023-02-17T05:16:17.893Z,8.76
2023-02-17T05:18:46.800Z,8.73
2023-02-17T05:21:14.298Z,8.69
2023-02-17T05:23:42.174Z,8.73
2023-02-17T05:26:10.187Z,8.69
2023-02-17T05:28:38.177Z,8.79
2023-02-17T05:31:06.523Z,8.87
2023-02-17T05:33:34.124Z,8.82
2023-02-17T05:36:05.601Z,8.83
2023-02-17T05:38:34.718Z,8.89
2023-02-17T05:41:02.365Z,8.84
2023-02-17T05:43:29.918Z,8.86
2023-02-17T05:45:57.418Z,8.86
2023-02-17T05:48:24.923Z,8.87
2023-02-17T05:50:52.412Z,8.89
2023-02-17T05:53:21.416Z,8.98
2023-02-17T05:55:48.971Z,8.96
2023-02-17T05:58:16.442Z,9.03
2023-02-17T06:00:43.932Z,8.99
2023-02-17T06:03:11.461Z,8.97
2023-02-17T06:05:39.237Z,9.00
2023-02-17T06:08:07.135Z,9.05
2023-02-17T06:10:35.990Z,8.98
2023-02-17T06:13:03.490Z,8.95
2023-02-17T06:15:31.177Z,9.03
2023-02-17T06:17:58.637Z,9.06
2023-02-17T06:20:26.140Z,9.07
2023-02-17T06:22:53.616Z,9.14
2023-02-17T06:25:21.079Z,9.06
2023-02-17T06:27:49.924Z,9.10
2023-02-17T06:30:17.558Z,9.13
2023-02-17T06:32:45.110Z,9.16
2023-02-17T06:35:12.601Z,9.06
2023-02-17T06:37:40.093Z,9.09
2023-02-17T06:40:08.774Z,9.18
2023-02-17T06:42:36.306Z,9.16
2023-02-17T06:45:06.130Z,9.14
2023-02-17T06:47:33.675Z,9.15
2023-02-17T06:50:01.197Z,9.17
2023-02-17T06:52:28.973Z,9.22
2023-02-17T06:54:56.519Z,9.15
2023-02-17T06:57:24.544Z,9.19
2023-02-17T06:59:52.043Z,9.21
2023-02-17T07:02:21.155Z,9.17
2023-02-17T07:04:49.048Z,9.17
2023-02-17T07:07:16.629Z,9.17
2023-02-17T07:09:44.491Z,9.30
2023-02-17T07:12:12.008Z,9.27
2023-02-17T07:14:39.603Z,9.26
2023-02-17T07:17:07.163Z,9.25
2023-02-17T07:19:35.995Z,9.27
2023-02-17T07:22:03.676Z,9.30
2023-02-17T07:24:31.187Z,9.29
2023-02-17T07:26:58.662Z,9.30
2023-02-17T07:29:26.131Z,9.33
2023-02-17T07:31:53.800Z,9.36
2023-02-17T07:34:22.746Z,9.43
2023-02-17T07:36:51.558Z,9.39
2023-02-17T07:39:19.012Z,9.39
2023-02-17T07:41:46.597Z,9.42
2023-02-17T07:44:14.558Z,9.48
2023-02-17T07:46:42.083Z,9.49
2023-02-17T07:49:09.806Z,9.49
2023-02-17T07:51:37.309Z,9.47
2023-02-17T07:54:06.661Z,9.43
2023-02-17T07:56:34.144Z,9.45
2023-02-17T07:59:01.684Z,9.51
2023-02-17T08:01:29.161Z,9.52
2023-02-17T08:03:57.384Z,9.59
2023-02-17T08:06:26.215Z,9.59
2023-02-17T08:09:12.112Z,9.55
2023-02-17T08:11:59.360Z,9.57
2023-02-17T08:14:29.039Z,9.59
2023-02-17T08:16:56.744Z,9.64
2023-02-17T08:19:27.197Z,9.76
2023-02-17T08:22:00.002Z,9.82
2023-02-17T08:24:27.594Z,9.84
2023-02-17T08:26:56.660Z,9.78
2023-02-17T08:29:24.218Z,9.88
2023-02-17T08:31:53.558Z,9.91
2023-02-17T08:34:21.194Z,9.95
2023-02-17T08:36:48.880Z,10.02
2023-02-17T08:39:18.600Z,10.05
2023-02-17T08:41:46.589Z,10.15
2023-02-17T08:44:17.623Z,10.12
2023-02-17T08:46:47.899Z,10.11
2023-02-17T08:49:16.123Z,10.29
2023-02-17T08:51:44.109Z,10.23
2023-02-17T08:54:11.967Z,10.21
2023-02-17T08:56:40.513Z,10.21
2023-02-17T08:59:09.299Z,10.28
2023-02-17T09:01:38.327Z,10.32
2023-02-17T09:04:07.610Z,10.32
2023-02-17T09:06:36.566Z,10.37
2023-02-17T09:09:04.843Z,10.32
2023-02-17T09:11:32.356Z,10.22
2023-02-17T09:13:59.940Z,10.11
2023-02-17T09:16:27.624Z,10.10
2023-02-17T09:18:56.638Z,10.17
2023-02-17T09:21:24.366Z,10.24
2023-02-17T09:23:53.656Z,10.16
2023-02-17T09:26:21.573Z,10.22
2023-02-17T09:28:49.467Z,10.12
2023-02-17T09:31:19.241Z,10.13
2023-02-17T09:33:48.321Z,10.19
2023-02-17T09:36:19.019Z,10.13
2023-02-17T09:38:46.640Z,10.15
2023-02-17T09:41:19.460Z,10.19
2023-02-17T09:43:47.014Z,10.21
2023-02-17T09:46:18.152Z,10.21
2023-02-17T09:48:47.781Z,10.20
2023-02-17T09:51:22.160Z,10.30
2023-02-17T09:53:53.149Z,10.31
2023-02-17T09:56:24.713Z,10.33
2023-02-17T09:58:54.980Z,10.43
2023-02-17T10:01:25.531Z,10.54
2023-02-17T10:04:07.443Z,10.46
2023-02-17T10:06:38.490Z,10.53
2023-02-17T10:09:12.830Z,10.56
2023-02-17T10:11:43.497Z,10.53
2023-02-17T10:14:13.661Z,10.54
2023-02-17T10:16:47.030Z,10.61
2023-02-17T10:19:18.325Z,10.62
2023-02-17T10:21:50.628Z,10.62
2023-02-17T10:24:18.133Z,10.61
2023-02-17T10:26:54.555Z,10.67
2023-02-17T10:29:32.879Z,10.77
2023-02-17T10:32:12.553Z,10.88
2023-02-17T10:34:44.013Z,10.93
2023-02-17T10:37:15.807Z,10.96
2023-02-17T10:39:48.427Z,11.01
2023-02-17T10:42:22.307Z,11.08
2023-02-17T10:44:51.300Z,11.19
2023-02-17T10:47:19.115Z,11.23
2023-02-17T10:49:49.494Z,11.29
2023-02-17T10:52:19.885Z,11.52
2023-02-17T10:54:51.840Z,11.50
2023-02-17T10:57:21.005Z,11.62
2023-02-17T10:59:49.479Z,11.69
2023-02-17T11:02:19.918Z,11.79
2023-02-17T11:04:49.741Z,11.92
2023-02-17T11:07:20.220Z,12.01
2023-02-17T11:09:49.265Z,12.14
2023-02-17T11:12:20.416Z,12.27
2023-02-17T11:14:49.820Z,12.37
2023-02-17T11:17:22.828Z,12.37
2023-02-17T11:19:59.216Z,12.39
2023-02-17T11:22:35.302Z,12.52
2023-02-17T11:25:06.463Z,12.62
2023-02-17T11:27:33.981Z,12.69
2023-02-17T11:30:10.794Z,12.81
2023-02-17T11:32:38.384Z,12.79
2023-02-17T11:35:06.289Z,12.90
2023-02-17T11:37:39.206Z,12.96
2023-02-17T11:40:26.050Z,13.03
2023-02-17T11:42:58.372Z,13.13
2023-02-17T11:45:27.541Z,13.13
2023-02-17T11:48:06.150Z,13.25
2023-02-17T11:50:41.709Z,13.03
2023-02-17T11:53:24.941Z,13.21
2023-02-17T11:56:03.338Z,13.22
2023-02-17T11:58:40.216Z,13.29
2023-02-17T12:01:21.283Z,13.39
2023-02-17T12:04:05.536Z,13.48
2023-02-17T12:06:39.838Z,13.63
2023-02-17T12:09:16.176Z,13.64
2023-02-17T12:11:48.892Z,13.85
2023-02-17T12:14:44.238Z,13.44
2023-02-17T12:17:18.110Z,13.50
2023-02-17T12:19:51.057Z,13.51
2023-02-17T12:22:20.321Z,13.51
2023-02-17T12:25:16.810Z,13.38
2023-02-17T12:27:51.710Z,13.53
2023-02-17T12:30:27.905Z,13.60
2023-02-17T12:33:09.800Z,13.62
2023-02-17T12:35:44.016Z,13.81
2023-02-17T12:38:13.255Z,13.57
2023-02-17T12:40:46.103Z,13.60
2023-02-17T12:43:23.859Z,13.45
2023-02-17T12:45:52.405Z,13.58
2023-02-17T12:48:26.730Z,13.46
2023-02-17T12:50:58.992Z,13.29
2023-02-17T12:53:34.682Z,13.37
2023-02-17T12:56:05.891Z,13.51
2023-02-17T12:58:34.247Z,13.46
2023-02-17T13:01:07.199Z,13.35
2023-02-17T13:03:36.147Z,13.43
2023-02-17T13:06:07.437Z,13.41
2023-02-17T13:08:38.170Z,13.43
2023-02-17T13:11:11.738Z,13.50
2023-02-17T13:13:39.290Z,13.56
2023-02-17T13:16:11.136Z,13.37
2023-02-17T13:18:40.383Z,13.30
2023-02-17T13:21:20.398Z,13.41
2023-02-17T13:24:00.860Z,13.38
2023-02-17T13:26:31.766Z,13.41
2023-02-17T13:29:22.292Z,13.43
2023-02-17T13:31:52.399Z,13.51
2023-02-17T13:34:32.726Z,13.36
2023-02-17T13:37:03.352Z,13.32
2023-02-17T13:39:36.848Z,13.31
2023-02-17T13:42:25.526Z,13.36
2023-02-17T13:44:53.084Z,13.31
2023-02-17T13:47:32.574Z,13.21
2023-02-17T13:50:00.047Z,13.31
2023-02-17T13:52:29.120Z,13.22
2023-02-17T13:54:58.849Z,13.08
2023-02-17T13:57:30.188Z,13.16
2023-02-17T14:00:07.681Z,13.10
2023-02-17T14:02:38.465Z,13.08
2023-02-17T14:05:15.949Z,13.07
2023-02-17T14:07:43.436Z,13.11
2023-02-17T14:10:19.141Z,13.13
2023-02-17T14:12:48.961Z,13.02
2023-02-17T14:15:18.026Z,13.02
2023-02-17T14:17:45.707Z,13.00
2023-02-17T14:20:30.364Z,13.10
2023-02-17T14:23:04.781Z,13.20
2023-02-17T14:25:35.113Z,13.15
2023-02-17T14:28:04.580Z,13.18
2023-02-17T14:30:35.423Z,13.18
2023-02-17T14:33:07.815Z,13.26
2023-02-17T14:35:36.115Z,13.32
2023-02-17T14:38:20.651Z,13.36
2023-02-17T14:40:48.295Z,13.30
2023-02-17T14:43:17.231Z,13.29
2023-02-17T14:45:44.699Z,13.20
2023-02-17T14:48:12.265Z,13.18
2023-02-17T14:50:42.387Z,13.27
2023-02-17T14:53:13.206Z,13.19
2023-02-17T14:55:45.584Z,13.15
2023-02-17T14:58:20.984Z,13.23
2023-02-17T15:00:48.984Z,13.14
2023-02-17T15:03:16.510Z,13.17
2023-02-17T15:05:44.220Z,13.13
2023-02-17T15:08:14.324Z,13.16
2023-02-17T15:10:41.899Z,13.18
2023-02-17T15:13:12.266Z,13.16
2023-02-17T15:15:44.737Z,13.09
2023-02-17T15:18:12.703Z,13.12
2023-02-17T15:20:42.531Z,13.13
2023-02-17T15:23:13.089Z,13.14
2023-02-17T15:25:40.668Z,13.06
2023-02-17T15:28:08.357Z,13.08
2023-02-17T15:30:37.421Z,13.08
2023-02-17T15:33:09.882Z,13.05
2023-02-17T15:35:37.448Z,13.12
2023-02-17T15:38:05.103Z,13.04
2023-02-17T15:40:34.697Z,13.02
2023-02-17T15:43:03.485Z,13.04
2023-02-17T15:45:31.646Z,13.04
2023-02-17T15:48:08.821Z,13.02
2023-02-17T15:50:40.139Z,13.08
2023-02-17T15:53:07.794Z,13.05
2023-02-17T15:55:36.113Z,13.03
2023-02-17T15:58:05.236Z,13.05
2023-02-17T16:00:34.514Z,13.02
2023-02-17T16:03:02.534Z,13.03
2023-02-17T16:05:30.933Z,13.04
2023-02-17T16:08:00.049Z,13.11
2023-02-17T16:10:28.342Z,13.12
2023-02-17T16:12:57.441Z,13.00
2023-02-17T16:15:26.220Z,13.03
2023-02-17T16:17:55.696Z,12.95
2023-02-17T16:20:24.336Z,13.01
2023-02-17T16:22:52.640Z,12.97
2023-02-17T16:25:22.774Z,12.97
2023-02-17T16:28:10.711Z,13.10
2023-02-17T16:30:38.567Z,12.94
2023-02-17T16:33:07.035Z,12.90
2023-02-17T16:35:34.771Z,12.91
2023-02-17T16:38:04.196Z,12.91
2023-02-17T16:40:36.037Z,12.87
2023-02-17T16:43:04.321Z,12.89
2023-02-17T16:45:33.353Z,12.86
2023-02-17T16:48:01.930Z,12.85
2023-02-17T16:50:31.445Z,12.80
2023-02-17T16:53:01.413Z,12.92
2023-02-17T16:55:31.695Z,12.88
2023-02-17T16:58:01.000Z,12.81
2023-02-17T17:00:31.394Z,12.82
2023-02-17T17:02:59.657Z,12.81
2023-02-17T17:05:28.936Z,12.81
2023-02-17T17:07:57.050Z,12.82
2023-02-17T17:10:26.485Z,12.77
2023-02-17T17:12:54.319Z,12.72
2023-02-17T17:15:23.593Z,12.71
2023-02-17T17:17:54.523Z,12.74
2023-02-17T17:20:27.382Z,12.69
2023-02-17T17:22:55.096Z,12.76
2023-02-17T17:25:22.698Z,12.76
2023-02-17T17:27:58.594Z,12.65
2023-02-17T17:30:31.748Z,12.66
2023-02-17T17:32:59.754Z,12.60
2023-02-17T17:35:28.036Z,12.59
2023-02-17T17:37:59.928Z,12.58
2023-02-17T17:40:30.027Z,12.54
2023-02-17T17:42:57.774Z,12.60
2023-02-17T17:45:28.066Z,12.62
2023-02-17T17:47:55.696Z,12.48
2023-02-17T17:50:25.677Z,12.46
2023-02-17T17:52:53.551Z,12.44
2023-02-17T17:55:21.150Z,12.42
2023-02-17T17:57:49.320Z,12.44
2023-02-17T18:00:18.277Z,12.42
2023-02-17T18:02:47.262Z,12.49
2023-02-17T18:05:16.863Z,12.41
2023-02-17T18:07:50.364Z,12.53
2023-02-17T18:10:17.989Z,12.52
2023-02-17T18:12:46.645Z,12.39
2023-02-17T18:15:15.055Z,12.39
2023-02-17T18:17:43.430Z,12.42
2023-02-17T18:20:13.204Z,12.44
2023-02-17T18:22:40.860Z,12.42
2023-02-17T18:25:09.163Z,12.38
2023-02-17T18:27:41.253Z,12.42
2023-02-17T18:30:11.282Z,12.43
2023-02-17T18:32:38.749Z,12.56
2023-02-17T18:35:06.649Z,12.45
2023-02-17T18:37:35.781Z,12.36
2023-02-17T18:40:04.302Z,12.23
2023-02-17T18:42:32.591Z,12.24
2023-02-17T18:45:00.187Z,12.36
2023-02-17T18:47:27.793Z,12.36
2023-02-17T18:49:55.538Z,12.30
2023-02-17T18:52:23.223Z,12.23
2023-02-17T18:54:52.194Z,12.24
2023-02-17T18:57:19.873Z,12.33
2023-02-17T18:59:47.495Z,12.23
2023-02-17T19:02:15.495Z,12.33
2023-02-17T19:04:43.437Z,12.31
2023-02-17T19:07:12.471Z,12.23
2023-02-17T19:09:42.702Z,12.24
2023-02-17T19:12:13.527Z,12.26
2023-02-17T19:14:44.684Z,12.29
2023-02-17T19:17:13.049Z,12.28
2023-02-17T19:19:43.263Z,12.30
2023-02-17T19:22:17.348Z,12.40
2023-02-17T19:24:46.691Z,12.37
2023-02-17T19:27:17.840Z,12.37
2023-02-17T19:29:45.497Z,12.38
2023-02-17T19:32:16.129Z,12.36
2023-02-17T19:34:46.080Z,12.33
2023-02-17T19:37:15.415Z,12.24
2023-02-17T19:39:45.305Z,12.26
2023-02-17T19:42:15.429Z,12.32
2023-02-17T19:44:44.502Z,12.30
2023-02-17T19:47:14.810Z,12.36
2023-02-17T19:49:42.445Z,12.46
2023-02-17T19:52:14.533Z,12.29
2023-02-17T19:54:42.138Z,12.28
2023-02-17T19:57:09.890Z,12.35
2023-02-17T19:59:40.238Z,12.29
2023-02-17T20:02:13.039Z,12.25
2023-02-17T20:04:40.702Z,12.08
2023-02-17T20:07:08.444Z,12.16
2023-02-17T20:09:38.292Z,12.14
2023-02-17T20:12:08.762Z,12.01
2023-02-17T20:14:38.444Z,11.99
2023-02-17T20:17:06.090Z,11.97
2023-02-17T20:19:37.738Z,11.88
2023-02-17T20:22:05.492Z,11.88
2023-02-17T20:24:35.225Z,11.82
2023-02-17T20:27:03.134Z,11.94
2023-02-17T20:29:31.140Z,11.75
2023-02-17T20:31:58.908Z,11.76
2023-02-17T20:34:29.832Z,11.75
2023-02-17T20:37:00.572Z,11.84
2023-02-17T20:39:33.467Z,11.72
2023-02-17T20:42:01.636Z,11.64
2023-02-17T20:44:32.081Z,11.58
2023-02-17T20:47:02.947Z,11.57
2023-02-17T20:49:30.653Z,11.47
2023-02-17T20:51:59.805Z,11.57
2023-02-17T20:54:27.482Z,11.60
2023-02-17T20:56:57.773Z,11.61
2023-02-17T20:59:25.696Z,11.66
2023-02-17T21:01:53.333Z,11.72
2023-02-17T21:04:20.920Z,11.72
2023-02-17T21:06:48.553Z,11.77
2023-02-17T21:09:19.154Z,11.75
2023-02-17T21:11:47.826Z,11.76
2023-02-17T21:14:15.908Z,11.84
2023-02-17T21:16:43.551Z,11.95
2023-02-17T21:19:11.147Z,12.00
2023-02-17T21:21:41.034Z,12.11
2023-02-17T21:24:08.853Z,12.05
2023-02-17T21:26:37.895Z,12.04
2023-02-17T21:29:08.575Z,12.14
2023-02-17T21:31:37.077Z,12.18
2023-02-17T21:34:05.174Z,12.07
2023-02-17T21:36:35.281Z,12.12
2023-02-17T21:39:04.195Z,12.18
2023-02-17T21:41:32.581Z,12.20
2023-02-17T21:44:18.878Z,12.14
2023-02-17T21:46:48.103Z,12.08
2023-02-17T21:49:15.947Z,12.12
2023-02-17T21:51:43.495Z,12.02
2023-02-17T21:54:11.523Z,12.05
2023-02-17T21:56:39.489Z,12.04
2023-02-17T21:59:08.973Z,12.01
2023-02-17T22:01:36.579Z,11.99
2023-02-17T22:04:04.603Z,12.08
2023-02-17T22:06:39.264Z,11.99
2023-02-17T22:09:08.066Z,12.03
2023-02-17T22:11:37.153Z,12.12
2023-02-17T22:14:06.192Z,12.06
2023-02-17T22:16:37.762Z,11.75
2023-02-17T22:19:07.035Z,11.70
2023-02-17T22:21:34.948Z,11.71
2023-02-17T22:24:03.420Z,11.72
2023-02-17T22:26:31.232Z,11.85
2023-02-17T22:28:58.775Z,11.74
2023-02-17T22:31:28.291Z,11.71
2023-02-17T22:33:58.153Z,11.80
2023-02-17T22:36:27.440Z,11.75
2023-02-17T22:38:55.554Z,11.86
2023-02-17T22:41:24.572Z,11.72
2023-02-17T22:43:52.782Z,11.63
2023-02-17T22:46:21.922Z,11.78
2023-02-17T22:48:51.903Z,11.80
2023-02-17T22:51:22.408Z,11.73
2023-02-17T22:53:50.290Z,11.90
2023-02-17T22:56:17.876Z,11.84
2023-02-17T22:58:45.391Z,11.84
2023-02-17T23:01:14.795Z,11.75
2023-02-17T23:03:43.126Z,11.74
2023-02-17T23:06:13.460Z,11.70
2023-02-17T23:08:44.392Z,11.67
2023-02-17T23:11:13.954Z,11.77
2023-02-17T23:13:41.762Z,11.74
2023-02-17T23:16:11.704Z,11.73
2023-02-17T23:18:39.393Z,11.66
2023-02-17T23:21:12.442Z,11.55
2023-02-17T23:23:40.350Z,11.49
2023-02-17T23:26:09.603Z,11.52
2023-02-17T23:28:37.411Z,11.48
2023-02-17T23:31:05.060Z,11.78
2023-02-17T23:33:32.546Z,11.58
2023-02-17T23:36:00.054Z,11.54
2023-02-17T23:38:27.532Z,11.47
2023-02-17T23:40:56.138Z,11.63
2023-02-17T23:43:25.202Z,11.40
2023-02-17T23:45:56.214Z,11.43
2023-02-17T23:48:23.810Z,11.42
2023-02-17T23:50:56.509Z,11.53
2023-02-17T23:53:24.197Z,11.46
2023-02-17T23:56:01.312Z,11.36
2023-02-17T23:58:30.212Z,11.29
